Horton, Michigan
Current Conditions -  °F | °C
As of 2:56 PM on Friday 19 Dec 2014 (Local Time) from KJXN Reporting Station
Overcast Overcast  
Wind Chill: -2°   Ceiling: 1800
Heat Index: -2°   Visibility: 10mi
Dew Point: -6°   Wind: 3mph
Humidity: 78%   Direction: 210°SSW
Pressure: 30.23"   Gusts: NA
Location:  42.15°N, 84.52°W
Report Text: KJXN 191956Z 21003KT 10SM OVC018 M02/M06 A3023 RMK AO2 SLP250 T10221056
Loading
Personal Weather Stations






























Interactive Weather Map New forecast layout! Learn more

10-Day Weather Forecast

Advertisements
Track Severe Weather on mobile